KACY

Atlantic City International Airport

Airport
ICAO code
KACY
IATA Code
ACY
Summary
ICAO Region
NAM
ICAO Territory
Location

Atlantic City, New Jersey,

Serving
Atlantic City
Elevation
75 ft
Coordinates
39° 27' 4" N , 74° 34' 21" W
KCC
Metar
Observation
KACY 081954Z 33011KT 10SM CLR 12/03 A3020 RMK AO2 SLP227 T01170033
Station
Atlantic City, Atlantic City International Airport
Date/Time
2022-12-08 19:54:00
Wind direction
330°
Wind speed
11 kts
Lowest cloud amount
n/a
Temperature
11.7°C
Dew point
3.3°C
Humidity
56%
Weather condition
n/a

Description

Atlantic City International Airport is a joint civil-military (ANG/USCG) airport located 17 km northwest of Atlantic City, in Atlantic County, New Jersey.

Climatology

Humid “subtropical” climate (Köppen climate classification Cfa) - characterized by hot, humid summers and cool winters. Significant amounts of precipitation occur in all seasons in most areas. Winter rainfall (and sometimes snowfall) is associated with large storms that the westerlies steer from west to east. Most summer rainfall occurs during thunderstorms and occasional tropical storms (hurricanes).

Airport map

Aerial View

SKYbrary Partners:

Safety knowledge contributed by: